createdAt,value
2017-09-04T08:43:52.611Z,3.80
2017-09-04T08:54:56.786Z,3.93
2017-09-04T08:57:24.275Z,4.90
2017-09-04T08:59:51.743Z,4.60
2017-09-04T09:02:19.242Z,5.30
2017-09-04T09:04:46.723Z,6.27
2017-09-04T09:07:14.222Z,5.10
2017-09-04T09:09:41.736Z,4.53
2017-09-04T09:12:09.208Z,4.63
2017-09-04T09:14:36.680Z,4.77
2017-09-04T09:17:04.172Z,3.93
2017-09-04T09:19:31.631Z,4.63
2017-09-04T09:21:59.141Z,4.10
2017-09-04T09:24:26.640Z,3.87
2017-09-04T09:26:54.115Z,3.60
2017-09-04T09:29:21.611Z,3.00
2017-09-04T09:31:49.071Z,4.00
2017-09-04T09:34:16.595Z,3.70
2017-09-04T09:36:44.063Z,2.90
2017-09-04T09:39:11.531Z,3.30
2017-09-04T09:41:39.032Z,3.60
2017-09-04T09:44:06.541Z,3.43
2017-09-04T09:46:34.029Z,3.30
2017-09-04T09:49:01.503Z,3.40
2017-09-04T09:51:28.999Z,3.40
2017-09-04T09:53:56.474Z,3.53
2017-09-04T09:56:23.966Z,4.07
2017-09-04T09:58:51.430Z,3.10
2017-09-04T10:01:18.918Z,2.63
2017-09-04T10:03:46.391Z,2.70
2017-09-04T10:06:13.851Z,3.63
2017-09-04T10:08:41.351Z,3.53
2017-09-04T10:11:08.828Z,3.13
2017-09-04T10:13:36.322Z,3.43
2017-09-04T10:16:04.578Z,3.40
2017-09-04T10:18:32.057Z,3.07
2017-09-04T10:20:59.547Z,4.10
2017-09-04T10:23:27.054Z,3.23
2017-09-04T10:25:54.511Z,3.50
2017-09-04T10:28:22.004Z,2.63
2017-09-04T10:30:49.512Z,3.37
2017-09-04T10:33:16.988Z,3.03
2017-09-04T10:35:44.485Z,3.33
2017-09-04T10:38:11.978Z,3.20
2017-09-04T10:40:39.463Z,2.80
2017-09-04T10:43:06.935Z,2.80
2017-09-04T10:45:34.439Z,3.10
2017-09-04T10:48:01.931Z,2.93
2017-09-04T10:50:29.463Z,2.90
2017-09-04T10:52:57.031Z,2.90
2017-09-04T10:55:24.487Z,3.50
2017-09-04T10:57:51.981Z,3.00
2017-09-04T11:00:19.451Z,3.10
2017-09-04T11:02:46.935Z,2.87
2017-09-04T11:05:14.814Z,2.83
2017-09-04T11:07:42.290Z,2.43
2017-09-04T11:10:09.771Z,2.67
2017-09-04T11:12:37.238Z,2.50
2017-09-04T11:15:04.725Z,2.73
2017-09-04T11:17:32.206Z,2.60
2017-09-04T11:19:59.678Z,3.30
2017-09-04T11:22:27.197Z,2.97
2017-09-04T11:24:54.655Z,2.87
2017-09-04T11:27:22.191Z,2.87
2017-09-04T11:29:49.688Z,3.40
2017-09-04T11:32:17.151Z,3.80
2017-09-04T11:34:44.644Z,2.87
2017-09-04T11:37:12.099Z,3.30
2017-09-04T11:39:39.588Z,2.77
2017-09-04T11:42:07.083Z,2.73
2017-09-04T11:44:34.550Z,3.07
2017-09-04T11:47:02.050Z,3.30
2017-09-04T11:49:29.535Z,3.00
2017-09-04T11:51:57.014Z,3.83
2017-09-04T11:54:24.512Z,2.97
2017-09-04T11:56:51.971Z,3.70
2017-09-04T11:59:19.470Z,3.63
2017-09-04T12:01:46.930Z,4.10
2017-09-04T12:04:14.432Z,4.00
2017-09-04T12:06:41.910Z,4.17
2017-09-04T12:09:09.393Z,4.10
2017-09-04T12:11:36.871Z,3.87
2017-09-04T12:14:04.331Z,3.17
2017-09-04T12:16:31.822Z,3.57
2017-09-04T12:18:59.297Z,4.00
2017-09-04T12:21:26.779Z,4.03
2017-09-04T12:23:54.288Z,3.23
2017-09-04T12:26:23.028Z,3.80
2017-09-04T12:28:50.500Z,4.33
2017-09-04T12:31:18.790Z,3.53
2017-09-04T12:33:46.272Z,4.50
2017-09-04T12:36:13.770Z,3.57
2017-09-04T12:38:41.242Z,3.70
2017-09-04T12:41:08.707Z,4.13
2017-09-04T12:43:36.173Z,4.17
2017-09-04T12:46:03.687Z,4.27
2017-09-04T12:48:31.180Z,4.00
2017-09-04T12:50:58.682Z,4.43
2017-09-04T12:53:26.163Z,3.60
2017-09-04T12:55:53.632Z,4.43
2017-09-04T12:58:21.723Z,3.33
2017-09-04T13:00:49.208Z,3.80
2017-09-04T13:03:16.727Z,3.77
2017-09-04T13:05:44.195Z,4.20
2017-09-04T13:08:11.666Z,4.07
2017-09-04T13:10:39.787Z,4.30
2017-09-04T13:16:26.029Z,4.00
2017-09-04T13:18:59.232Z,3.10
2017-09-04T13:24:37.302Z,5.47
2017-09-04T13:27:10.457Z,5.00
2017-09-04T13:29:53.732Z,5.10
2017-09-04T13:32:26.882Z,4.40
2017-09-04T13:35:00.133Z,3.47
2017-09-04T13:37:36.319Z,4.73
2017-09-04T13:40:09.595Z,5.80
2017-09-04T13:42:41.056Z,4.60
2017-09-04T13:48:18.335Z,4.40
2017-09-04T13:50:51.432Z,4.07
2017-09-04T13:53:24.562Z,4.97
2017-09-04T13:55:52.041Z,4.63
2017-09-04T14:01:30.116Z,3.57
2017-09-04T14:04:03.368Z,3.50
2017-09-04T14:09:47.662Z,4.43
2017-09-04T14:12:20.791Z,3.80
2017-09-04T14:14:54.106Z,4.30
2017-09-04T14:17:27.363Z,3.73
2017-09-04T14:19:54.873Z,4.03
2017-09-04T14:22:22.379Z,3.20
2017-09-04T14:24:49.833Z,3.67
2017-09-04T14:27:17.315Z,3.13
2017-09-04T14:29:44.795Z,3.27
2017-09-04T14:32:12.305Z,3.40
2017-09-04T14:34:39.771Z,3.50
2017-09-04T14:37:07.253Z,3.53
2017-09-04T14:39:34.769Z,3.40
2017-09-04T14:42:02.260Z,3.60
2017-09-04T14:44:29.829Z,3.83
2017-09-04T14:47:03.215Z,4.27
2017-09-04T14:49:30.720Z,3.80
2017-09-04T14:51:58.993Z,3.97
2017-09-04T14:54:26.804Z,4.10
2017-09-04T14:56:54.305Z,3.90
2017-09-04T14:59:21.776Z,3.73
2017-09-04T15:01:49.271Z,3.80
2017-09-04T15:04:16.759Z,4.90
2017-09-04T15:06:44.246Z,3.37
2017-09-04T15:09:11.717Z,3.20
2017-09-04T15:11:39.216Z,3.20
2017-09-04T15:14:06.716Z,3.43
2017-09-04T15:16:34.188Z,3.43
2017-09-04T15:19:01.688Z,3.70
2017-09-04T15:21:29.143Z,3.10
2017-09-04T15:23:56.647Z,3.20
2017-09-04T15:26:24.110Z,3.23
2017-09-04T15:28:51.586Z,3.70
2017-09-04T15:31:19.103Z,3.80
2017-09-04T15:33:46.567Z,4.57
2017-09-04T15:36:14.095Z,5.60
2017-09-04T15:38:41.589Z,4.10
2017-09-04T15:41:09.085Z,3.70
2017-09-04T15:43:36.551Z,3.50
2017-09-04T15:46:04.017Z,4.10
2017-09-04T15:48:31.524Z,3.93
2017-09-04T15:50:59.040Z,3.80
2017-09-04T15:53:26.508Z,3.13
2017-09-04T15:55:54.007Z,2.93
2017-09-04T15:58:21.518Z,3.50
2017-09-04T16:00:48.996Z,4.27
2017-09-04T16:03:16.511Z,3.53
2017-09-04T16:08:49.778Z,3.00
2017-09-04T16:11:17.270Z,4.00
2017-09-04T16:13:46.277Z,3.80
2017-09-04T16:19:20.803Z,3.40
2017-09-04T16:34:43.286Z,5.00
2017-09-04T16:37:16.375Z,3.53
2017-09-04T16:39:45.822Z,3.57
2017-09-04T16:42:14.813Z,3.60
2017-09-04T16:44:42.331Z,4.50
2017-09-04T16:47:11.608Z,4.13
2017-09-04T16:49:41.715Z,3.70
2017-09-04T16:52:11.679Z,4.27
2017-09-04T16:54:39.963Z,3.60
2017-09-04T16:57:10.297Z,4.20
2017-09-04T16:59:37.808Z,3.30
2017-09-04T17:02:05.311Z,7.13
2017-09-04T17:04:32.790Z,3.27
2017-09-04T17:07:00.291Z,3.33
2017-09-04T17:09:29.908Z,4.43
2017-09-04T17:12:00.323Z,3.80
2017-09-04T17:14:27.795Z,2.93
2017-09-04T17:16:55.929Z,2.90
2017-09-04T17:19:27.854Z,3.17
2017-09-04T17:21:56.838Z,3.20
2017-09-04T17:24:24.334Z,2.60
2017-09-04T17:26:51.823Z,2.97
2017-09-04T17:29:19.303Z,2.83
2017-09-04T17:31:46.794Z,2.90
2017-09-04T17:34:14.263Z,2.80
2017-09-04T17:36:41.749Z,3.23
2017-09-04T17:39:09.223Z,2.97
2017-09-04T17:41:36.728Z,3.40
2017-09-04T17:44:04.191Z,3.27
2017-09-04T17:46:31.686Z,3.20
2017-09-04T17:48:59.202Z,3.17
2017-09-04T17:51:26.671Z,3.50
2017-09-04T17:53:54.167Z,3.17
2017-09-04T17:56:21.658Z,3.07
2017-09-04T17:58:49.174Z,2.93
2017-09-04T18:01:16.679Z,2.70
2017-09-04T18:03:44.139Z,3.03
2017-09-04T18:06:11.671Z,3.40
2017-09-04T18:08:39.140Z,2.97
2017-09-04T18:11:06.613Z,2.97
2017-09-04T18:13:34.115Z,3.00
2017-09-04T18:16:01.658Z,2.87
2017-09-04T18:18:29.151Z,2.80
2017-09-04T18:20:56.638Z,3.20
2017-09-04T18:23:24.110Z,3.10
2017-09-04T18:25:51.593Z,2.90
2017-09-04T18:28:19.067Z,3.87
2017-09-04T18:30:46.561Z,3.20
2017-09-04T18:33:14.084Z,2.77
2017-09-04T18:35:41.547Z,2.70
2017-09-04T18:38:09.029Z,3.27
2017-09-04T18:40:36.515Z,3.00
2017-09-04T18:43:04.030Z,3.33
2017-09-04T18:45:31.522Z,3.33
2017-09-04T18:47:58.982Z,2.97
2017-09-04T18:50:26.533Z,2.80
2017-09-04T18:52:54.650Z,3.63
2017-09-04T18:55:22.104Z,3.30
2017-09-04T18:57:49.586Z,3.30
2017-09-04T19:00:17.062Z,3.30
2017-09-04T19:02:44.559Z,3.23
2017-09-04T19:05:12.019Z,2.70
2017-09-04T19:07:39.526Z,3.23
2017-09-04T19:10:06.987Z,2.83
2017-09-04T19:12:34.451Z,2.73
2017-09-04T19:15:01.941Z,2.80
2017-09-04T19:17:29.404Z,3.27
2017-09-04T19:19:56.935Z,3.23
2017-09-04T19:22:24.406Z,3.03
2017-09-04T19:24:51.913Z,3.00
2017-09-04T19:27:19.398Z,3.40
2017-09-04T19:29:46.946Z,3.00
2017-09-04T19:32:14.411Z,3.10
2017-09-04T19:34:41.891Z,3.00
2017-09-04T19:37:09.380Z,2.90
2017-09-04T19:39:36.843Z,3.03
2017-09-04T19:42:04.315Z,2.87
2017-09-04T19:44:31.802Z,3.20
2017-09-04T19:46:59.280Z,3.43
2017-09-04T19:49:26.749Z,6.93
2017-09-04T19:51:54.258Z,7.87
2017-09-04T19:54:21.740Z,6.90
2017-09-04T19:56:49.267Z,8.20
2017-09-04T19:59:16.771Z,11.23
2017-09-04T20:01:44.224Z,11.13
2017-09-04T20:04:11.739Z,4.17
2017-09-04T20:06:39.217Z,4.00
2017-09-04T20:09:06.720Z,3.20
2017-09-04T20:11:34.229Z,3.47
2017-09-04T20:14:02.149Z,3.20
2017-09-04T20:16:30.407Z,3.53
2017-09-04T20:18:57.972Z,4.10
2017-09-04T20:21:25.430Z,3.87
2017-09-04T20:23:52.909Z,4.57
2017-09-04T20:26:20.411Z,4.90
2017-09-04T20:28:47.918Z,5.60
2017-09-04T20:31:15.390Z,3.60
2017-09-04T20:33:42.856Z,3.73
2017-09-04T20:36:10.359Z,3.90
2017-09-04T20:38:37.845Z,4.07
2017-09-04T20:41:05.310Z,3.90
2017-09-04T20:43:32.815Z,3.73
2017-09-04T20:46:00.309Z,3.67
2017-09-04T20:48:27.804Z,3.53
2017-09-04T20:50:55.270Z,3.50
2017-09-04T20:53:22.810Z,4.00
2017-09-04T20:55:50.269Z,3.20
2017-09-04T20:58:17.747Z,3.33
2017-09-04T21:00:45.243Z,3.33
2017-09-04T21:03:12.719Z,3.30
2017-09-04T21:05:40.238Z,3.90
2017-09-04T21:08:07.713Z,3.10
2017-09-04T21:10:35.427Z,3.50
2017-09-04T21:13:02.951Z,3.20
2017-09-04T21:15:30.432Z,3.53
2017-09-04T21:17:57.899Z,3.07
2017-09-04T21:20:25.410Z,3.70
2017-09-04T21:22:52.897Z,3.67
2017-09-04T21:25:20.386Z,3.33
2017-09-04T21:27:47.882Z,3.50
2017-09-04T21:30:15.424Z,3.80
2017-09-04T21:32:42.940Z,3.63
2017-09-04T21:35:10.442Z,3.93
2017-09-04T21:37:37.918Z,4.10
2017-09-04T21:40:05.439Z,3.90
2017-09-04T21:42:32.915Z,4.37
2017-09-04T21:45:00.405Z,4.53
2017-09-04T21:47:27.901Z,4.10
2017-09-04T21:49:55.391Z,4.23
2017-09-04T21:52:22.917Z,4.17
2017-09-04T21:54:50.378Z,3.50
2017-09-04T21:57:17.855Z,4.03
2017-09-04T21:59:45.335Z,3.87
2017-09-04T22:02:12.811Z,4.20
2017-09-04T22:04:40.323Z,3.60
2017-09-04T22:07:07.778Z,3.80
2017-09-04T22:09:35.240Z,3.90
2017-09-04T22:12:02.743Z,3.70
2017-09-04T22:14:30.231Z,3.63
2017-09-04T22:16:57.704Z,3.20
2017-09-04T22:19:25.210Z,3.70
2017-09-04T22:21:52.671Z,3.93
2017-09-04T22:24:20.149Z,4.40
2017-09-04T22:26:47.612Z,4.10
2017-09-04T22:29:15.075Z,3.80
2017-09-04T22:31:42.569Z,3.57
2017-09-04T22:34:10.034Z,3.77
2017-09-04T22:36:37.551Z,4.03
2017-09-04T22:39:05.015Z,4.70
2017-09-04T22:41:32.501Z,4.13
2017-09-04T22:43:59.991Z,4.37
2017-09-04T22:46:27.455Z,4.30
2017-09-04T22:48:54.952Z,4.47
2017-09-04T22:51:22.438Z,3.90
2017-09-04T22:53:49.931Z,3.30
2017-09-04T22:56:18.164Z,3.67
2017-09-04T22:58:55.579Z,4.40
2017-09-04T23:01:23.060Z,4.87
2017-09-04T23:03:50.520Z,4.80
2017-09-04T23:06:18.029Z,4.00
2017-09-04T23:08:45.486Z,5.17
2017-09-04T23:11:12.999Z,4.30
2017-09-04T23:13:40.483Z,3.77
2017-09-04T23:16:07.962Z,3.83
2017-09-04T23:18:35.460Z,3.73
2017-09-04T23:21:02.939Z,3.90
2017-09-04T23:23:30.401Z,3.70
2017-09-04T23:25:58.666Z,3.87
2017-09-04T23:28:26.127Z,5.07
2017-09-04T23:30:53.672Z,4.37
2017-09-04T23:33:21.143Z,4.43
2017-09-04T23:35:48.639Z,4.23
2017-09-04T23:38:16.173Z,5.53
2017-09-04T23:40:43.618Z,4.60
2017-09-04T23:43:11.096Z,4.90
2017-09-04T23:45:38.584Z,4.20
2017-09-04T23:48:06.104Z,4.87
2017-09-04T23:50:34.342Z,5.00
2017-09-04T23:53:01.818Z,5.17
2017-09-04T23:55:29.327Z,5.47
2017-09-04T23:57:56.805Z,4.60
